Time;durP1;ratioP1;P1;durP2;ratioP2;P2;SDS_P1;SDS_P2;PMS_P1;PMS_P2;Temp;Humidity;BMP_temperature;BMP_pressure;BME280_temperature;BME280_humidity;BME280_pressure;Samples;Min_cycle;Max_cycle;Signal;HPM_P1;HPM_P2
2022/04/18 00:09:21;;;;;;;;;;;19.90;37.80;;;;;;21011652;28;19978;-64
2022/04/18 00:19:22;;;;;;;;;;;19.70;38.00;;;;;;21012135;28;20444;-66
2022/04/18 00:29:24;;;;;;;;;;;19.70;38.20;;;;;;21008866;28;19927;-64
2022/04/18 00:39:25;;;;;;;;;;;19.60;38.40;;;;;;21008330;28;20327;-65
2022/04/18 00:49:30;;;;;;;;;;;19.50;38.40;;;;;;21007917;28;20007;-66
2022/04/18 00:59:32;;;;;;;;;;;19.40;38.10;;;;;;21007650;28;19920;-64
2022/04/18 01:09:33;;;;;;;;;;;19.30;38.30;;;;;;21006213;28;20346;-65
2022/04/18 01:19:35;;;;;;;;;;;19.20;38.60;;;;;;20986966;28;20268;-65
2022/04/18 01:29:37;;;;;;;;;;;19.10;38.70;;;;;;21004277;28;19924;-66
2022/04/18 01:39:45;;;;;;;;;;;18.90;38.50;;;;;;21003187;28;20280;-65
2022/04/18 01:49:53;;;;;;;;;;;18.70;40.30;;;;;;21002557;28;19920;-65
2022/04/18 01:59:57;;;;;;;;;;;18.50;40.70;;;;;;21002562;28;20366;-64
2022/04/18 02:10:04;;;;;;;;;;;18.00;44.10;;;;;;21001171;28;20314;-65
2022/04/18 02:20:08;;;;;;;;;;;17.60;45.90;;;;;;21000344;28;20416;-62
2022/04/18 02:30:16;;;;;;;;;;;17.20;46.40;;;;;;20998932;28;20057;-64
2022/04/18 02:40:24;;;;;;;;;;;16.90;47.90;;;;;;20997663;28;20019;-65
2022/04/18 02:50:29;;;;;;;;;;;16.50;49.10;;;;;;20997325;28;19966;-64
2022/04/18 03:00:35;;;;;;;;;;;16.10;49.20;;;;;;20996440;28;20298;-65
2022/04/18 03:20:59;;;;;;;;;;;15.80;49.90;;;;;;20995410;28;19967;-64
2022/04/18 03:31:00;;;;;;;;;;;15.50;50.00;;;;;;20995778;28;20007;-63
2022/04/18 03:41:02;;;;;;;;;;;15.40;50.30;;;;;;20993338;28;20019;-63
2022/04/18 03:51:04;;;;;;;;;;;15.30;50.70;;;;;;20994058;28;19927;-64
2022/04/18 04:01:05;;;;;;;;;;;15.30;51.00;;;;;;20994044;28;19973;-64
2022/04/18 04:11:08;;;;;;;;;;;15.20;50.80;;;;;;20993889;28;20003;-62
2022/04/18 04:21:09;;;;;;;;;;;15.10;50.90;;;;;;20974768;28;19990;-64
2022/04/18 04:31:11;;;;;;;;;;;15.10;51.00;;;;;;20992459;28;20382;-63
2022/04/18 04:41:12;;;;;;;;;;;15.10;51.00;;;;;;20991722;28;19950;-64
2022/04/18 04:51:16;;;;;;;;;;;15.00;51.00;;;;;;21005626;28;19920;-66
2022/04/18 05:01:18;;;;;;;;;;;14.90;51.00;;;;;;21006516;28;20359;-64
2022/04/18 05:11:19;;;;;;;;;;;14.90;51.30;;;;;;21006029;28;19927;-65
2022/04/18 05:21:21;;;;;;;;;;;14.80;51.30;;;;;;21004452;28;19920;-68
2022/04/18 05:31:23;;;;;;;;;;;14.70;51.50;;;;;;21004259;28;19927;-63
2022/04/18 05:41:24;;;;;;;;;;;14.60;51.10;;;;;;21003692;28;20004;-63
2022/04/18 05:51:26;;;;;;;;;;;14.50;51.50;;;;;;21002483;28;19960;-67
2022/04/18 06:01:30;;;;;;;;;;;14.50;51.00;;;;;;21001222;28;19920;-64
2022/04/18 06:11:32;;;;;;;;;;;14.50;50.90;;;;;;21000518;28;19975;-63
2022/04/18 06:21:33;;;;;;;;;;;14.50;51.10;;;;;;21001027;28;19967;-64
2022/04/18 06:31:34;;;;;;;;;;;14.70;50.60;;;;;;20999644;28;19973;-64
2022/04/18 06:41:36;;;;;;;;;;;14.70;50.00;;;;;;20997432;28;19981;-64
2022/04/18 06:51:38;;;;;;;;;;;14.80;49.40;;;;;;20996994;28;19924;-64
2022/04/18 07:01:39;;;;;;;;;;;15.30;44.20;;;;;;20996252;28;20369;-63
2022/04/18 07:11:42;;;;;;;;;;;15.80;41.00;;;;;;20996574;28;20263;-64
2022/04/18 07:21:43;;;;;;;;;;;16.30;38.80;;;;;;20977776;28;19921;-65
2022/04/18 07:31:45;;;;;;;;;;;16.70;37.00;;;;;;20995777;28;19920;-67
2022/04/18 07:41:46;;;;;;;;;;;17.20;35.90;;;;;;20993925;28;19966;-68
2022/04/18 07:51:48;;;;;;;;;;;;;;;;;;20971416;28;19964;-68
2022/04/18 08:01:50;;;;;;;;;;;;;;;;;;20910923;28;20020;-64
2022/04/18 08:11:52;;;;;;;;;;;;;;;;;;20910561;28;19927;-63
2022/04/18 08:21:54;;;;;;;;;;;;;;;;;;20917050;28;20003;-64
2022/04/18 08:31:56;;;;;;;;;;;;;;;;;;20925977;28;20374;-63
2022/04/18 08:41:58;;;;;;;;;;;;;;;;;;20923400;28;20339;-63
2022/04/18 09:02:14;;;;;;;;;;;;;;;;;;20924459;28;19928;-64
2022/04/18 09:12:16;;;;;;;;;;;;;;;;;;20923223;28;20016;-64
2022/04/18 09:22:19;;;;;;;;;;;;;;;;;;20923735;28;20344;-64
2022/04/18 09:32:21;;;;;;;;;;;;;;;;;;20920243;28;20047;-62
2022/04/18 09:42:23;;;;;;;;;;;;;;;;;;20920577;28;19971;-64
2022/04/18 09:52:25;;;;;;;;;;;;;;;;;;20934455;28;20385;-58
2022/04/18 10:02:28;;;;;;;;;;;;;;;;;;20997350;28;20400;-65
2022/04/18 10:12:30;;;;;;;;;;;;;;;;;;20984297;28;19920;-62
2022/04/18 10:22:32;;;;;;;;;;;;;;;;;;20933485;28;19964;-63
2022/04/18 10:32:33;;;;;;;;;;;;;;;;;;20948767;28;20371;-70
2022/04/18 10:42:35;;;;;;;;;;;;;;;;;;20942577;28;20012;-62
2022/04/18 10:52:38;;;;;;;;;;;;;;;;;;20922623;28;19928;-64
2022/04/18 11:02:44;;;;;;;;;;;;;;;;;;20992461;28;20046;-74
2022/04/18 11:12:46;;;;;;;;;;;;;;;;;;20978098;28;19920;-71
2022/04/18 11:22:48;;;;;;;;;;;;;;;;;;20995968;28;20011;-71
2022/04/18 11:32:49;;;;;;;;;;;;;;;;;;20995285;28;19963;-76
2022/04/18 11:42:51;;;;;;;;;;;;;;;;;;20993898;28;19921;-74
2022/04/18 11:52:53;;;;;;;;;;;;;;;;;;20976107;28;20378;-70
2022/04/18 12:13:15;;;;;;;;;;;;;;;;;;20993499;28;20015;-70
2022/04/18 12:23:16;;;;;;;;;;;;;;;;;;20993552;28;19959;-70
2022/04/18 12:33:21;;;;;;;;;;;;;;;;;;20993240;28;19999;-74
2022/04/18 12:43:23;;;;;;;;;;;;;;;;;;20992175;28;20319;-71
2022/04/18 12:53:25;;;;;;;;;;;;;;;;;;20991798;28;19928;-71
2022/04/18 13:03:27;;;;;;;;;;;;;;;;;;20991868;28;19967;-72
2022/04/18 13:13:29;;;;;;;;;;;;;;;;;;21003882;28;19920;-71
2022/04/18 13:23:33;;;;;;;;;;;;;;;;;;20987615;28;20442;-71
2022/04/18 13:33:35;;;;;;;;;;;;;;;;;;21004179;28;19920;-74
2022/04/18 13:43:37;;;;;;;;;;;;;;;;;;21003131;28;20011;-70
2022/04/18 13:53:39;;;;;;;;;;;;;;;;;;21003353;28;19965;-70
2022/04/18 14:03:41;;;;;;;;;;;;;;;;;;20984596;28;20022;-70
2022/04/18 14:13:45;;;;;;;;;;;;;;;;;;21001557;28;19964;-71
2022/04/18 14:23:49;;;;;;;;;;;;;;;;;;21000019;28;20359;-71
2022/04/18 14:33:51;;;;;;;;;;;;;;;;;;20999308;28;19921;-72
2022/04/18 14:43:53;;;;;;;;;;;;;;;;;;20999233;28;20382;-66
2022/04/18 14:53:55;;;;;;;;;;;;;;;;;;20998917;28;20290;-68
2022/04/18 15:03:57;;;;;;;;;;;;;;;;;;20998472;28;19928;-64
2022/04/18 15:13:59;;;;;;;;;;;;;;;;;;20998226;28;20370;-70
2022/04/18 15:24:02;;;;;;;;;;;;;;;;;;20997983;28;19920;-76
2022/04/18 15:34:04;;;;;;;;;;;;;;;;;;20994483;28;19920;-66
2022/04/18 15:44:06;;;;;;;;;;;;;;;;;;20995754;28;19920;-64
2022/04/18 15:54:07;;;;;;;;;;;;;;;;;;20995010;28;19927;-65
2022/04/18 16:04:09;;;;;;;;;;;;;;;;;;20994816;28;20259;-70
2022/04/18 16:14:12;;;;;;;;;;;;;;;;;;20976905;28;20393;-72
2022/04/18 16:24:16;;;;;;;;;;;;;;;;;;20977930;28;20011;-73
2022/04/18 16:34:18;;;;;;;;;;;;;;;;;;20993548;28;19921;-65
2022/04/18 16:54:40;;;;;;;;;;;;;;;;;;21008563;28;19927;-69
2022/04/18 17:04:45;;;;;;;;;;;;;;;;;;21006248;28;19967;-71
2022/04/18 17:14:47;;;;;;;;;;;;;;;;;;21005431;28;19921;-71
2022/04/18 17:24:49;;;;;;;;;;;;;;;;;;21004601;28;19956;-69
2022/04/18 17:34:51;;;;;;;;;;;;;;;;;;21003690;28;19920;-71
2022/04/18 17:44:53;;;;;;;;;;;;;;;;;;21002524;28;19936;-70
2022/04/18 18:05:15;;;;;;;;;;;;;;;;;;21001382;28;20301;-69
2022/04/18 18:15:17;;;;;;;;;;;;;;;;;;20999811;28;19920;-68
2022/04/18 18:25:19;;;;;;;;;;;;;;;;;;20998820;28;20015;-69
2022/04/18 18:35:21;;;;;;;;;;;;;;;;;;20998988;28;19965;-71
2022/04/18 18:45:23;;;;;;;;;;;;;;;;;;20997121;28;19928;-68
2022/04/18 18:55:25;;;;;;;;;;;;;;;;;;20997502;28;19960;-71
2022/04/18 19:05:27;;;;;;;;;;;;;;;;;;20995929;28;19920;-72
2022/04/18 19:15:29;;;;;;;;;;;;;;;;;;20997281;28;19999;-69
2022/04/18 19:35:51;;;;;;;;;;;;;;;;;;20995146;28;20304;-72
2022/04/18 19:45:53;;;;;;;;;;;;;;;;;;20976489;28;20025;-70
2022/04/18 19:55:55;;;;;;;;;;;;;;;;;;20935161;28;20336;-72
2022/04/18 20:05:57;;;;;;;;;;;;;;;;;;20910567;28;19974;-71
2022/04/18 20:16:00;;;;;;;;;;;;;;;;;;20914784;28;19960;-67
2022/04/18 20:26:01;;;;;;;;;;;;;;;;;;20926799;28;20023;-71
2022/04/18 20:36:03;;;;;;;;;;;;;;;;;;20925659;28;19929;-71
2022/04/18 20:46:05;;;;;;;;;;;;;;;;;;20907387;28;20373;-71
2022/04/18 21:06:28;;;;;;;;;;;;;;;;;;20923455;28;20015;-74
2022/04/18 21:16:31;;;;;;;;;;;;;;;;;;20922209;28;20047;-72
2022/04/18 21:26:32;;;;;;;;;;;;;;;;;;20920782;28;19920;-70
2022/04/18 21:36:49;;;;;;;;;;;;;;;;;;20922018;28;20377;-72
2022/04/18 21:46:51;;;;;;;;;;;;;;;;;;20919587;28;19967;-68
2022/04/18 21:56:53;;;;;;;;;;;;;;;;;;20919132;28;20035;-74
2022/04/18 22:06:55;;;;;;;;;;;;;;;;;;20919519;28;20382;-72
2022/04/18 22:16:58;;;;;;;;;;;;;;;;;;20901522;28;19924;-73
2022/04/18 22:27:00;;;;;;;;;;;;;;;;;;20919108;28;19960;-72
2022/04/18 22:37:02;;;;;;;;;;;;;;;;;;20917023;28;19921;-72
2022/04/18 22:47:04;;;;;;;;;;;;;;;;;;20916526;28;19940;-72
2022/04/18 22:57:07;;;;;;;;;;;;;;;;;;20916404;28;19920;-70
2022/04/18 23:07:09;;;;;;;;;;;;;;;;;;20915670;28;20393;-69
2022/04/18 23:17:10;;;;;;;;;;;;;;;;;;20915485;28;19920;-73
2022/04/18 23:27:12;;;;;;;;;;;;;;;;;;20914014;28;19974;-72
2022/04/18 23:37:14;;;;;;;;;;;;;;;;;;20913045;28;19921;-71
2022/04/18 23:47:17;;;;;;;;;;;;;;;;;;20912632;28;19966;-73
2022/04/18 23:57:18;;;;;;;;;;;;;;;;;;20912396;28;20013;-70
